Portada
METAR-TAF:

METAR-TAF

Aeroports :

Kumamoto, Japó

latitud: 32-50N, longitud: 130-51E, altitud: 193 m

Observació

L'informe es va fer fa 8 hores i 17 minuts, a les 12:00 UTC
Vent 6 kt del Nord/Nord-Est
Temperatura 18°C
Humitat 77%
Pressió 1021 hPa
Visibilitat 10 km o més
sense núvols per sota de 1500 mi sense presència de cumulonimbus.

METAR: RJFT 141200Z 02006KT CAVOK 18/14 Q1021

Hora: 05:17 (20:17 UTC)

Pronòstic

L'informe es va fer fa 3 hores i 10 minuts, a les 17:07 UTC
Pronòstic vàlid del 14 a les 18 UTC al 16 a les 00 UTC
Vent 4 kt del Nord-Est
Visibilitat 10 km o més
Escasses núvols a una alçada de 4000 ft

TAF: RJFT 141707Z 1418/1600 04004KT 9999 FEW040

Observacions i pronòstics meteorològics de més de 4000 aeroports (METAR i TAF).

Les estacions disponibles són els punts grocs i vermells al mapa.

Posi el ratolí al punt desitjat per veure el nom de l'estació.

Feu clic per veure les observacions i els pronòstics meteorològics.

Per canviar el mapa: feu clic els botons verds amb una creu de color negre per apropar; al botó verd amb un guió per allunyar la imatge; o en les fletxes verdes per a mapes adjacents.


METAR-TAF: